Leander — DD5959 — position and weather

sailwx.info

Track history (hours):
 
Tides and Currents Weather Stations Pressure Air Temp Water Temp Dewpoint Dewpoint Depression Visibility Wind Speed Wind Dir Waves Ship Positions

Leander

Last reported at 2014-Jul-19 17:33 UTC. Time now 2014-Jul-23 16:23 UTC.
Position N 41°15' E 001°54'.

Length 15 m.

Type: Sailing vessel. MMSI: 211480070.

Date/timePositionNaut miles runAvg speedWind from/ knotsBaromVisibWave heightAir tempDewpointWater temp
2014-Jul-19 17:33N 41°15' E 001°54'6 5.6
2014-Jul-19 16:26N 41°14' E 002°02'7 6.7
2014-Jul-19 15:27N 41°18' E 002°10'6 0.2
2014-Jul-18 16:31N 41°23' E 002°12'3 3.0
2014-Jul-18 15:33N 41°20' E 002°11'6 6.1
2014-Jul-18 14:32N 41°16' E 002°05'4 4.1
2014-Jul-18 13:29N 41°15' E 001°60'4 3.9
2014-Jul-18 12:20N 41°15' E 001°54'9 0.3
2014-Jul-16 23:32N 41°14' E 002°06'5 5.2
2014-Jul-16 22:32N 41°15' E 002°13'5 5.4
2014-Jul-16 21:33N 41°16' E 002°20'39 6.2
2014-Jul-16 15:15N 41°18' E 003°12'27 5.8
2014-Jul-16 10:33N 41°18' E 003°48'12 6.2
2014-Jul-16 08:33N 41°18' E 004°05'6 5.6
2014-Jul-16 07:33N 41°17' E 004°12'74 5.7
2014-Jul-15 18:33N 41°21' E 005°50'6 5.5
2014-Jul-15 17:31N 41°22' E 005°58'  
Track history (hours):
 
Tides and Currents Weather Stations Pressure Air Temp Water Temp Dewpoint Dewpoint Depression Visibility Wind Speed Wind Dir Waves Ship Positions

Leander

Last reported at 2014-Jul-19 17:33 UTC. Time now 2014-Jul-23 16:23 UTC.
Position N 41°15' E 001°54'.

Length 15 m.

Type: Sailing vessel. MMSI: 211480070.

Date/timePositionNaut miles runAvg speedWind from/ knotsBaromVisibWave heightAir tempDewpointWater temp
2014-Jul-19 17:33N 41°15' E 001°54'6 5.6
2014-Jul-19 16:26N 41°14' E 002°02'7 6.7
2014-Jul-19 15:27N 41°18' E 002°10'6 0.2
2014-Jul-18 16:31N 41°23' E 002°12'3 3.0
2014-Jul-18 15:33N 41°20' E 002°11'6 6.1
2014-Jul-18 14:32N 41°16' E 002°05'4 4.1
2014-Jul-18 13:29N 41°15' E 001°60'4 3.9
2014-Jul-18 12:20N 41°15' E 001°54'9 0.3
2014-Jul-16 23:32N 41°14' E 002°06'5 5.2
2014-Jul-16 22:32N 41°15' E 002°13'5 5.4
2014-Jul-16 21:33N 41°16' E 002°20'39 6.2
2014-Jul-16 15:15N 41°18' E 003°12'27 5.8
2014-Jul-16 10:33N 41°18' E 003°48'12 6.2
2014-Jul-16 08:33N 41°18' E 004°05'6 5.6
2014-Jul-16 07:33N 41°17' E 004°12'74 5.7
2014-Jul-15 18:33N 41°21' E 005°50'6 5.5
2014-Jul-15 17:31N 41°22' E 005°58'  

Dump ship's entire track history